YUL weather

Montreal / Pierre Elliott Trudeau International Airport
Montréal, Quebec, Canada

Public forecast

Using degrees Celsius for public forecast. Weather courtesy of forecast.io.

METAR (pilot weather report)

Retrieved 2018/10/19 09:00 UTC (16 minutes ago):

CYUL 190900Z 24013G20KT 15SM FEW065 BKN210 05/M01 A3006 RMK SC2CC5 CI ASOCT SLP181

TAF (pilot weather forecast)

Retrieved 2018/10/19 09:42 UTC (0 seconds ago):

TAF CYUL 190838Z 1909/2006 24013G23KT P6SM OVC060 FM191400 23015G25KT P6SM BKN025 FM191700 23020G30KT P6SM SCT030 FM192300 23015G25KT P6SM FEW025 OVC150 FM200200 23015G25KT P6SM -RA BKN030 OVC080 RMK NXT FCST BY 191200Z